»·PEaware :: N149CD KVNY-KONT

N149CD :: KVNY-KONT

FLIGHT INFORMATION

Flight Status: Arrived
Operator: Privately registered:
United States
More flights under this callsign
Pilot: Nathan E. (30132)
Aircraft: CESSNA 172 SKYHAWK
(C172)
More flights by this aircraft type
Origin: KVNY Van Nuys
United States
Destination: KONT Ontario Intl
United States
More flights between these airports :: More routes between these airports
Route: +ADAMM3 V186 PDZ
File this flight plan on PilotEdge
Remarks: TEC route BURP8
Altitude:
(Current/Filed)
5,000ft
Speed:
(Current/Filed)
110kts
Departed: 10-Sep-20 12:58 PM
Arrived: 10-Sep-20 01:43 PM
Distance/Time
Traveled:
45nm/0:45
Distance/Time
To Go:
Arrived

Flight Plot

Page will automatically refresh every two minutes.

Flight plan parsing failed; only flown route is shown


Map Options




Map Legend


Flown Route
Filed Route
Departure Airport
Arrival Airport
Navaid (VOR, NDB)
Fix

Horizontal Profiles

Position Reports

Time Latitude Longitude Heading Altitude Ground
Speed
10-Sep-20 12:41 34.215503 -118.498557 2 806ft 0kts
10-Sep-20 12:42 34.215503 -118.498557 2 806ft 0kts
10-Sep-20 12:43 34.215503 -118.498557 2 806ft 0kts
10-Sep-20 12:44 34.215503 -118.498557 2 806ft 0kts
10-Sep-20 12:45 34.215503 -118.498557 2 806ft 0kts
10-Sep-20 12:46 34.215503 -118.498557 2 806ft 0kts
10-Sep-20 12:47 34.215503 -118.498557 2 806ft 0kts
10-Sep-20 12:48 34.215503 -118.498557 2 806ft 0kts
10-Sep-20 12:49 34.215503 -118.498557 2 806ft 0kts
10-Sep-20 12:50 34.215503 -118.498557 2 806ft 0kts
10-Sep-20 12:51 34.215503 -118.498557 2 806ft 0kts
10-Sep-20 12:52 34.217535 -118.495425 98 806ft 15kts
10-Sep-20 12:53 34.219231 -118.492579 358 806ft 13kts
10-Sep-20 12:54 34.219333 -118.492196 98 806ft 0kts
10-Sep-20 12:55 34.219333 -118.492196 98 806ft 0kts
10-Sep-20 12:56 34.218351 -118.491186 175 806ft 19kts
10-Sep-20 12:57 34.199244 -118.489356 174 1366ft 75kts
10-Sep-20 12:58 34.180742 -118.480136 125 2176ft 77kts
10-Sep-20 12:59 34.168357 -118.458839 125 3001ft 78kts
10-Sep-20 13:00 34.155827 -118.437263 125 3782ft 79kts
10-Sep-20 13:01 34.143134 -118.415416 125 4526ft 80kts
10-Sep-20 13:02 34.129715 -118.391816 112 5006ft 107kts
10-Sep-20 13:04 34.127755 -118.354386 91 5000ft 113kts
10-Sep-20 13:05 34.126758 -118.316180 91 4999ft 113kts
10-Sep-20 13:06 34.125769 -118.278114 91 4999ft 113kts
10-Sep-20 13:07 34.124786 -118.240072 91 5000ft 113kts
10-Sep-20 13:08 34.123809 -118.202074 91 5000ft 113kts
10-Sep-20 13:09 34.121893 -118.164144 102 4999ft 113kts
10-Sep-20 13:10 34.112298 -118.127530 109 4999ft 113kts
10-Sep-20 13:11 34.101690 -118.091889 109 5000ft 113kts
10-Sep-20 13:12 34.090697 -118.055816 110 5000ft 113kts
10-Sep-20 13:13 34.079665 -118.019868 110 5000ft 113kts
10-Sep-20 13:14 34.068479 -117.983485 110 5000ft 113kts
10-Sep-20 13:15 34.058008 -117.947279 105 5000ft 113kts
10-Sep-20 13:16 34.049766 -117.910218 104 4999ft 113kts
10-Sep-20 13:17 34.041601 -117.873244 104 5000ft 113kts
10-Sep-20 13:18 34.033389 -117.836108 104 4999ft 113kts
10-Sep-20 13:19 34.025183 -117.799059 104 4999ft 113kts
10-Sep-20 13:20 34.016865 -117.761558 104 5000ft 113kts
10-Sep-20 13:21 34.008549 -117.724131 104 5000ft 113kts
10-Sep-20 13:22 34.000093 -117.686126 104 5000ft 113kts
10-Sep-20 13:22 33.993148 -117.654962 104 5000ft 113kts
10-Sep-20 13:24 33.983391 -117.611242 104 5000ft 113kts
10-Sep-20 13:24 33.976414 -117.580030 104 5000ft 113kts
10-Sep-20 13:25 33.968034 -117.542594 104 5000ft 113kts
10-Sep-20 13:26 33.959702 -117.505433 104 5000ft 113kts
10-Sep-20 13:27 33.951379 -117.468364 104 5000ft 113kts
10-Sep-20 13:28 33.943147 -117.431758 104 5000ft 113kts
10-Sep-20 13:29 33.934784 -117.394625 104 5000ft 113kts
10-Sep-20 13:30 33.926522 -117.357664 99 4998ft 113kts
10-Sep-20 13:31 33.950437 -117.341859 0 4675ft 115kts
10-Sep-20 13:32 33.983244 -117.341730 0 4648ft 112kts
10-Sep-20 13:33 34.014995 -117.341638 0 4800ft 113kts
10-Sep-20 13:34 34.046692 -117.344420 321 4683ft 117kts
10-Sep-20 13:35 34.054761 -117.382468 271 4170ft 120kts
10-Sep-20 13:36 34.054916 -117.422154 270 3565ft 114kts
10-Sep-20 13:37 34.054948 -117.460155 270 2954ft 112kts
10-Sep-20 13:38 34.054970 -117.497831 270 2340ft 112kts
10-Sep-20 13:39 34.054978 -117.534959 270 1766ft 101kts
10-Sep-20 13:40 34.054960 -117.562409 269 1297ft 69kts
10-Sep-20 13:41 34.054952 -117.584736 270 925ft 60kts
10-Sep-20 13:42 34.054286 -117.589695 182 916ft 0kts
10-Sep-20 13:43 34.053847 -117.591616 269 915ft 24kts
10-Sep-20 13:44 34.053842 -117.600337 271 915ft 24kts
10-Sep-20 13:45 34.052647 -117.600875 91 910ft 0kts
10-Sep-20 13:46 34.052647 -117.600875 91 910ft 0kts

Navigation Log

Ident Type
Flight plan parsing failed, navigation log unavailable